Time;durP1;ratioP1;P1;durP2;ratioP2;P2;SDS_P1;SDS_P2;PMS_P1;PMS_P2;Temp;Humidity;BMP_temperature;BMP_pressure;BME280_temperature;BME280_humidity;BME280_pressure;Samples;Min_cycle;Max_cycle;Signal;HPM_P1;HPM_P2
2023/06/12 05:31:19;;;;;;;;;15.00;15.00;;;;;22.96;59.72;101127.63;5073496;27;45740;-74
2023/06/12 05:33:45;;;;;;;;;15.33;15.33;;;;;23.02;59.61;101127.84;5063504;28;45422;-73
2023/06/12 05:36:10;;;;;;;;;19.00;16.67;;;;;23.20;59.16;101128.84;5057025;28;45979;-73
2023/06/12 05:38:37;;;;;;;;;18.00;18.00;;;;;23.34;58.89;101125.59;5063873;28;45770;-74
2023/06/12 05:41:02;;;;;;;;;16.00;16.00;;;;;23.47;58.89;101125.19;5066783;27;46213;-73
2023/06/12 05:43:28;;;;;;;;;17.67;16.67;;;;;23.62;58.49;101133.56;5055194;27;45979;-74
2023/06/12 05:45:53;;;;;;;;;15.67;15.67;;;;;23.75;58.22;101132.31;5053354;28;46052;-74
2023/06/12 05:48:19;;;;;;;;;19.00;15.00;;;;;23.86;58.01;101133.91;5064899;28;54389;-74
2023/06/12 05:50:44;;;;;;;;;19.67;18.00;;;;;23.94;57.44;101129.38;5059640;28;45806;-74
2023/06/12 05:53:10;;;;;;;;;15.00;14.67;;;;;23.99;57.42;101119.91;5065667;28;55237;-75
2023/06/12 05:55:35;;;;;;;;;14.33;14.33;;;;;24.10;57.25;101132.34;5057967;28;45648;-73
2023/06/12 05:58:00;;;;;;;;;16.67;16.00;;;;;24.17;57.18;101134.25;5060102;27;45571;-72
2023/06/12 06:00:26;;;;;;;;;16.00;15.67;;;;;24.25;56.77;101135.28;5067621;27;52963;-73
2023/06/12 06:02:51;;;;;;;;;19.00;18.33;;;;;24.30;56.77;101128.34;5063240;28;45609;-71
2023/06/12 06:05:17;;;;;;;;;16.33;16.33;;;;;24.37;56.64;101131.25;5065353;28;45765;-73
2023/06/12 06:07:42;;;;;;;;;19.00;18.67;;;;;24.40;56.60;101133.63;5054014;28;45646;-74
2023/06/12 06:10:08;;;;;;;;;18.67;17.33;;;;;24.42;56.13;101134.31;5064978;28;51072;-75
2023/06/12 06:12:33;;;;;;;;;17.33;16.33;;;;;24.48;56.13;101133.66;5063436;28;45604;-74
2023/06/12 06:14:59;;;;;;;;;18.00;15.67;;;;;24.51;56.15;101137.03;5067473;28;45652;-74
2023/06/12 06:17:25;;;;;;;;;19.00;18.00;;;;;24.52;56.03;101134.16;5067408;28;45434;-75
2023/06/12 06:19:50;;;;;;;;;17.33;17.33;;;;;24.57;55.90;101133.69;5068038;28;45488;-72
2023/06/12 06:22:18;;;;;;;;;14.33;13.00;;;;;24.62;56.46;101142.16;5062744;28;45846;-72
2023/06/12 06:24:44;;;;;;;;;12.00;11.33;;;;;24.66;56.23;101135.41;5063372;28;45679;-72
2023/06/12 06:27:10;;;;;;;;;13.33;12.00;;;;;24.74;56.30;101129.13;5068212;28;45477;-72
2023/06/12 06:29:35;;;;;;;;;12.67;12.00;;;;;24.81;56.09;101129.31;5067832;28;45392;-72
2023/06/12 06:32:01;;;;;;;;;14.33;13.33;;;;;24.86;56.11;101127.81;5066610;28;45422;-72
2023/06/12 06:34:27;;;;;;;;;12.33;12.33;;;;;24.89;56.13;101128.50;5064967;28;45939;-72
2023/06/12 06:36:52;;;;;;;;;13.00;13.00;;;;;24.94;56.04;101136.97;5065996;28;45657;-74
2023/06/12 06:39:18;;;;;;;;;18.67;17.67;;;;;24.93;55.62;101132.59;5066491;28;46640;-75
2023/06/12 06:41:43;;;;;;;;;15.00;13.33;;;;;24.92;55.05;101137.16;5059275;28;45475;-74
2023/06/12 06:44:08;;;;;;;;;15.33;14.67;;;;;24.92;54.92;101137.16;5053426;28;45497;-75
2023/06/12 06:46:34;;;;;;;;;12.00;12.00;;;;;24.92;54.93;101139.00;5054105;28;45512;-74
2023/06/12 06:48:59;;;;;;;;;18.67;14.00;;;;;24.92;54.93;101147.16;5054949;28;45900;-74
2023/06/12 06:51:24;;;;;;;;;17.00;14.33;;;;;24.91;55.02;101143.59;5051877;28;45501;-76
2023/06/12 06:53:50;;;;;;;;;12.67;12.67;;;;;24.93;55.05;101146.16;5049784;28;45384;-75
2023/06/12 06:56:16;;;;;;;;;17.33;15.00;;;;;24.89;54.82;101147.50;5044374;28;45410;-75
2023/06/12 06:58:41;;;;;;;;;16.00;16.00;;;;;24.85;55.10;101136.13;5045774;28;45304;-77
2023/06/12 07:01:06;;;;;;;;;16.67;16.67;;;;;24.85;54.88;101133.44;5053958;28;46437;-75
2023/06/12 07:03:32;;;;;;;;;17.67;14.33;;;;;24.86;55.16;101132.41;5048844;28;45438;-75
2023/06/12 07:05:57;;;;;;;;;19.00;14.33;;;;;24.84;54.95;101135.28;5053355;28;45470;-77
2023/06/12 07:08:22;;;;;;;;;17.00;16.00;;;;;24.86;54.58;101135.13;5054390;28;46336;-75
2023/06/12 07:10:48;;;;;;;;;16.00;16.00;;;;;24.85;54.49;101130.72;5040368;28;45745;-75
2023/06/12 07:13:13;;;;;;;;;13.67;13.67;;;;;24.84;54.91;101138.00;5054213;28;45420;-75
2023/06/12 07:15:38;;;;;;;;;14.00;14.00;;;;;24.84;54.93;101129.00;5052500;28;45502;-74
2023/06/12 07:18:05;;;;;;;;;15.00;14.33;;;;;24.86;54.33;101135.13;5048251;28;56397;-75
2023/06/12 07:20:30;;;;;;;;;17.00;14.67;;;;;24.88;54.26;101145.81;5054795;28;45365;-74
2023/06/12 07:22:55;;;;;;;;;14.33;13.67;;;;;24.87;54.26;101136.81;5055025;28;45758;-75
2023/06/12 07:25:21;;;;;;;;;15.67;15.00;;;;;24.85;54.67;101136.97;5054413;28;54728;-75
2023/06/12 07:27:46;;;;;;;;;16.67;14.67;;;;;24.83;53.81;101146.31;5050640;28;58312;-77
2023/06/12 07:30:12;;;;;;;;;16.00;13.67;;;;;24.80;54.17;101139.31;5040073;28;45750;-78
2023/06/12 07:32:37;;;;;;;;;17.33;13.67;;;;;24.80;54.37;101143.91;5043499;28;45405;-78
2023/06/12 07:35:03;;;;;;;;;16.33;14.33;;;;;24.80;54.10;101149.34;5049311;28;45567;-77
2023/06/12 07:37:35;;;;;;;;;16.33;16.33;;;;;24.82;54.09;101145.44;5053369;28;46844;-77
2023/06/12 07:40:03;;;;;;;;;16.00;16.00;;;;;24.84;54.32;101139.84;5050351;28;45556;-77
2023/06/12 07:42:28;;;;;;;;;14.00;14.00;;;;;24.78;54.51;101125.06;5044554;28;45797;-78
2023/06/12 07:44:54;;;;;;;;;14.00;13.33;;;;;24.89;53.89;101140.19;5050186;28;48386;-78
2023/06/12 07:47:19;;;;;;;;;14.00;13.67;;;;;24.90;54.21;101141.06;5067960;28;47118;-74
2023/06/12 07:49:44;;;;;;;;;14.00;14.00;;;;;24.91;54.19;101143.59;5051624;28;45489;-74
2023/06/12 07:52:10;;;;;;;;;15.67;15.67;;;;;24.90;54.28;101128.34;5041340;28;45816;-74
2023/06/12 07:54:35;;;;;;;;;15.67;14.33;;;;;24.92;54.11;101133.56;5036095;28;45395;-74
2023/06/12 07:57:00;;;;;;;;;21.00;17.00;;;;;24.89;54.16;101123.06;5044298;28;51196;-74
2023/06/12 07:59:26;;;;;;;;;17.00;17.00;;;;;24.93;54.25;101127.16;5051124;28;51465;-74
2023/06/12 08:01:51;;;;;;;;;21.33;18.33;;;;;24.84;54.25;101105.41;5052657;28;45477;-74
2023/06/12 08:04:17;;;;;;;;;15.67;14.67;;;;;24.92;54.42;101120.00;5052343;28;45359;-74
2023/06/12 08:06:44;;;;;;;;;16.33;16.33;;;;;24.93;54.32;101132.59;5053203;28;46075;-75
2023/06/12 08:09:10;;;;;;;;;14.33;13.33;;;;;24.93;54.19;101121.72;5049314;28;45519;-73
2023/06/12 08:11:35;;;;;;;;;21.33;18.33;;;;;24.95;54.25;101122.38;5044654;28;45376;-72
2023/06/12 08:14:01;;;;;;;;;18.33;18.33;;;;;24.98;54.12;101124.78;5045548;28;45670;-72
2023/06/12 08:16:26;;;;;;;;;17.00;16.00;;;;;24.98;53.98;101122.06;5046123;28;47115;-72
2023/06/12 08:18:52;;;;;;;;;15.33;14.00;;;;;25.00;54.40;101122.72;5051239;28;45489;-72
2023/06/12 08:21:17;;;;;;;;;20.67;19.67;;;;;25.03;54.23;101118.81;5047552;28;45406;-72
2023/06/12 08:23:43;;;;;;;;;17.00;15.33;;;;;25.05;53.72;101123.06;5044682;28;45629;-74
2023/06/12 08:26:08;;;;;;;;;19.00;18.00;;;;;25.02;53.94;101112.56;5041251;28;45537;-74
2023/06/12 08:28:35;;;;;;;;;20.00;20.00;;;;;25.09;53.48;101115.44;5049618;28;45566;-74
2023/06/12 08:31:01;;;;;;;;;15.00;15.00;;;;;25.08;53.50;101119.16;5047216;28;45628;-74
2023/06/12 08:33:27;;;;;;;;;18.00;17.33;;;;;25.07;53.98;101122.91;5053173;28;45422;-73
2023/06/12 08:35:53;;;;;;;;;15.33;15.33;;;;;25.04;54.01;101118.66;5047612;28;45444;-74
2023/06/12 08:38:18;;;;;;;;;16.00;14.67;;;;;25.09;53.54;101110.84;5047795;28;46470;-74
2023/06/12 08:40:46;;;;;;;;;20.67;18.67;;;;;25.09;53.32;101107.31;5037317;28;54266;-74
2023/06/12 08:43:11;;;;;;;;;23.33;18.67;;;;;25.08;53.21;101111.00;5052962;28;45413;-74
2023/06/12 08:45:45;;;;;;;;;19.33;19.33;;;;;25.11;53.31;101106.13;5046009;28;45418;-74
2023/06/12 08:48:12;;;;;;;;;20.00;18.67;;;;;25.13;53.43;101112.22;5051678;28;45721;-74
2023/06/12 08:50:38;;;;;;;;;22.67;21.00;;;;;25.12;53.66;101106.94;5043370;28;45363;-74
2023/06/12 08:53:04;;;;;;;;;22.33;19.33;;;;;25.14;53.80;101110.34;5050307;28;45390;-74
2023/06/12 08:55:32;;;;;;;;;19.00;19.00;;;;;25.15;53.31;101103.03;5040134;28;46648;-73
2023/06/12 08:57:59;;;;;;;;;18.00;17.67;;;;;25.18;53.41;101105.41;5044122;28;45601;-73
2023/06/12 09:00:25;;;;;;;;;19.00;18.00;;;;;25.18;53.05;101097.28;5032463;28;45409;-74
2023/06/12 09:02:52;;;;;;;;;18.00;16.00;;;;;25.20;53.24;101092.50;5051037;28;45439;-74
2023/06/12 09:05:24;;;;;;;;;16.00;16.00;;;;;25.22;53.24;101093.19;5051037;28;46097;-74
2023/06/12 09:07:50;;;;;;;;;16.33;15.67;;;;;25.26;53.07;101105.41;5048753;28;45318;-74
2023/06/12 09:10:16;;;;;;;;;14.67;14.67;;;;;25.29;53.35;101104.22;5068375;28;45645;-75
2023/06/12 09:12:44;;;;;;;;;20.67;19.00;;;;;25.32;53.05;101102.00;5044397;28;45590;-73
2023/06/12 09:15:16;;;;;;;;;20.33;18.33;;;;;25.35;53.47;101100.81;5045552;28;47913;-77
2023/06/12 09:17:42;;;;;;;;;19.33;17.00;;;;;25.36;53.53;101094.34;5046868;28;45440;-74
2023/06/12 09:20:14;;;;;;;;;13.33;13.33;;;;;25.40;53.24;101106.56;5035608;28;45391;-74
2023/06/12 09:22:40;;;;;;;;;18.67;15.00;;;;;25.43;53.27;101097.22;5051531;28;45447;-75
2023/06/12 09:25:06;;;;;;;;;15.33;15.33;;;;;25.45;52.85;101100.59;5033739;28;46204;-74
2023/06/12 09:27:40;;;;;;;;;21.33;19.67;;;;;25.46;53.40;101099.63;5040926;28;45427;-74
2023/06/12 09:30:07;;;;;;;;;19.00;16.00;;;;;25.49;53.51;101101.97;5048967;28;45631;-75
2023/06/12 09:32:32;;;;;;;;;17.67;17.67;;;;;25.50;53.19;101100.97;5057416;28;45825;-73
2023/06/12 09:34:58;;;;;;;;;17.00;16.00;;;;;25.54;53.40;101107.72;5040342;28;47465;-74
2023/06/12 09:37:23;;;;;;;;;14.67;14.00;;;;;25.56;53.31;101105.72;5040635;28;45349;-74
2023/06/12 09:39:49;;;;;;;;;15.67;13.00;;;;;25.53;52.90;101100.59;5044371;28;45421;-74
2023/06/12 09:42:17;;;;;;;;;21.67;19.00;;;;;25.59;53.11;101115.41;5041449;28;45482;-74
2023/06/12 09:44:42;;;;;;;;;24.00;20.00;;;;;25.61;52.57;101113.34;5049571;28;46188;-74
2023/06/12 09:47:08;;;;;;;;;19.33;17.33;;;;;25.60;52.99;101108.94;5041963;28;45428;-75
2023/06/12 09:49:34;;;;;;;;;22.67;22.33;;;;;25.60;53.17;101107.09;5050155;28;45444;-74
2023/06/12 09:52:03;;;;;;;;;26.67;24.00;;;;;25.61;53.18;101107.91;5045393;28;45496;-74
2023/06/12 09:54:30;;;;;;;;;23.33;20.67;;;;;25.60;52.94;101106.22;5048440;28;45611;-74
2023/06/12 09:56:58;;;;;;;;;22.00;22.00;;;;;25.58;52.63;101108.28;5043887;28;45496;-74
2023/06/12 09:59:26;;;;;;;;;23.33;20.33;;;;;25.59;52.86;101105.38;5051376;28;45457;-75
2023/06/12 10:01:55;;;;;;;;;23.67;23.67;;;;;25.62;52.36;101112.31;5032622;28;45648;-74
2023/06/12 10:04:31;;;;;;;;;24.67;22.33;;;;;25.61;53.07;101113.34;5049465;28;45496;-74
2023/06/12 10:07:15;;;;;;;;;25.00;23.00;;;;;25.62;52.52;101104.16;5049429;28;45550;-75
2023/06/12 10:09:42;;;;;;;;;26.00;24.00;;;;;25.64;53.17;101107.56;5038492;28;45569;-74
2023/06/12 10:12:09;;;;;;;;;22.67;21.67;;;;;25.64;52.67;101099.41;5050972;28;45415;-73
2023/06/12 10:14:35;;;;;;;;;27.33;24.33;;;;;25.68;53.24;101108.06;5049900;28;46046;-74
2023/06/12 10:17:03;;;;;;;;;18.33;17.67;;;;;25.71;52.70;101108.56;5043579;28;46858;-74
2023/06/12 10:19:30;;;;;;;;;26.33;24.00;;;;;25.72;52.75;101104.84;5042795;28;45477;-74
2023/06/12 10:21:56;;;;;;;;;24.00;22.33;;;;;25.76;52.69;101110.78;5054949;28;45454;-73
2023/06/12 10:24:23;;;;;;;;;25.00;22.67;;;;;25.76;52.56;101103.44;5053546;28;45384;-74
2023/06/12 10:26:52;;;;;;;;;28.33;22.33;;;;;25.77;52.60;101107.03;5043543;28;46173;-73
2023/06/12 10:29:29;;;;;;;;;20.67;20.67;;;;;25.77;53.08;101109.75;5049406;28;45467;-74
2023/06/12 10:32:14;;;;;;;;;26.33;24.00;;;;;25.75;52.93;101100.94;5052309;28;45403;-73
2023/06/12 10:34:41;;;;;;;;;27.33;24.67;;;;;25.78;53.44;101106.00;5048221;28;46226;-74
2023/06/12 10:37:23;;;;;;;;;22.67;21.67;;;;;25.80;53.32;101106.69;5049975;28;45374;-74
2023/06/12 10:40:05;;;;;;;;;22.67;22.33;;;;;25.78;53.52;101103.28;5054027;28;45379;-74
2023/06/12 10:43:01;;;;;;;;;23.33;19.00;;;;;25.77;53.12;101107.03;5054728;28;45433;-74
2023/06/12 10:45:35;;;;;;;;;25.33;23.33;;;;;25.77;53.57;101104.31;5046160;28;46437;-74
2023/06/12 10:50:33;;;;;;;;;23.67;19.67;;;;;25.78;53.08;101100.56;5052638;28;45527;-73
2023/06/12 10:53:12;;;;;;;;;25.67;24.00;;;;;25.78;53.59;101103.28;5054467;28;45347;-76
2023/06/12 10:55:38;;;;;;;;;20.33;20.33;;;;;25.81;53.72;101096.63;5041646;28;46273;-73
2023/06/12 10:58:06;;;;;;;;;24.33;21.33;;;;;25.80;52.94;101098.53;5036467;28;45459;-73
2023/06/12 11:00:51;;;;;;;;;24.67;20.00;;;;;25.81;53.71;101097.50;5046403;28;45462;-73
2023/06/12 11:03:21;;;;;;;;;26.33;25.33;;;;;25.83;53.53;101094.59;5051010;28;45443;-72
2023/06/12 11:05:47;;;;;;;;;25.33;24.33;;;;;25.84;52.98;101094.44;5049928;28;45548;-73
2023/06/12 11:08:13;;;;;;;;;24.33;22.33;;;;;25.87;52.53;101101.41;5053616;28;45596;-73
2023/06/12 11:10:38;;;;;;;;;22.67;21.67;;;;;25.88;53.00;101094.94;5051497;28;45722;-74
2023/06/12 11:13:04;;;;;;;;;25.67;21.67;;;;;25.91;52.88;101091.84;5054692;28;45375;-73
2023/06/12 11:15:33;;;;;;;;;24.33;23.67;;;;;25.93;52.47;101089.81;5052537;28;46068;-73
2023/06/12 11:17:58;;;;;;;;;25.67;24.33;;;;;25.95;53.10;101087.75;5043417;28;45787;-74
2023/06/12 11:20:24;;;;;;;;;28.00;26.33;;;;;25.98;52.37;101097.41;5046939;28;45484;-72
2023/06/12 11:22:58;;;;;;;;;13.67;13.67;;;;;25.96;52.23;101086.75;5052696;28;45394;-71
2023/06/12 11:25:25;;;;;;;;;24.00;20.33;;;;;25.98;52.92;101087.41;5049641;28;46040;-71
2023/06/12 11:27:51;;;;;;;;;24.33;22.00;;;;;25.89;52.86;101064.84;5042697;28;45429;-71
2023/06/12 11:30:17;;;;;;;;;16.67;16.67;;;;;26.00;52.76;101076.34;5053318;28;45466;-72
2023/06/12 11:32:45;;;;;;;;;18.33;15.67;;;;;26.02;52.27;101082.44;5048063;28;45664;-71
2023/06/12 11:35:11;;;;;;;;;21.67;21.00;;;;;25.98;52.28;101071.09;5046593;28;46219;-73
2023/06/12 11:37:40;;;;;;;;;17.67;14.00;;;;;25.99;52.82;101070.06;5045099;28;45472;-73
2023/06/12 11:40:14;;;;;;;;;18.33;18.33;;;;;25.98;52.06;101068.38;5053805;28;45470;-73
2023/06/12 11:42:41;;;;;;;;;19.33;17.67;;;;;25.95;52.78;101068.72;5067711;27;45816;-73
2023/06/12 11:45:14;;;;;;;;;20.33;18.67;;;;;25.92;52.90;101069.91;5047877;28;46033;-73
2023/06/12 11:47:42;;;;;;;;;18.67;17.33;;;;;25.90;52.71;101071.09;5045166;28;45750;-72
2023/06/12 11:50:13;;;;;;;;;21.33;18.00;;;;;25.91;53.14;101073.66;5053492;28;45615;-72
2023/06/12 11:52:40;;;;;;;;;23.67;23.00;;;;;25.84;52.72;101059.09;5046911;28;45316;-72
2023/06/12 11:55:11;;;;;;;;;22.67;18.67;;;;;25.88;53.13;101073.19;5032867;28;45605;-72
2023/06/12 11:57:38;;;;;;;;;22.00;18.00;;;;;25.91;52.86;101070.94;5044742;28;45475;-73
2023/06/12 12:00:14;;;;;;;;;26.00;22.00;;;;;25.93;52.91;101070.75;5054299;28;45430;-74
2023/06/12 12:02:41;;;;;;;;;20.00;19.00;;;;;25.93;52.56;101068.06;5048874;28;45335;-74
2023/06/12 12:05:09;;;;;;;;;20.00;18.67;;;;;25.94;52.45;101063.47;5050407;28;46277;-74
2023/06/12 12:07:38;;;;;;;;;22.33;22.00;;;;;25.95;52.84;101065.16;5052042;28;45425;-74
2023/06/12 12:10:06;;;;;;;;;22.00;21.33;;;;;25.97;52.92;101063.94;5052954;28;45439;-74
2023/06/12 12:12:50;;;;;;;;;21.67;20.33;;;;;25.98;52.63;101059.34;5048253;28;46587;-73
2023/06/12 12:15:23;;;;;;;;;21.33;19.33;;;;;25.97;52.15;101054.94;5060811;28;47226;-73
2023/06/12 12:17:48;;;;;;;;;20.00;20.00;;;;;25.98;52.87;101052.03;5050149;28;45438;-73
2023/06/12 12:20:22;;;;;;;;;22.00;21.00;;;;;25.97;52.39;101047.63;5050303;28;45561;-74
2023/06/12 12:23:12;;;;;;;;;22.67;22.33;;;;;26.01;52.22;101053.56;5045681;28;45756;-74
2023/06/12 12:25:38;;;;;;;;;26.33;22.33;;;;;26.03;52.24;101052.34;5052882;28;46126;-74
2023/06/12 12:28:04;;;;;;;;;20.33;19.00;;;;;26.03;52.34;101046.91;5049290;28;45485;-73
2023/06/12 12:30:29;;;;;;;;;21.67;21.67;;;;;26.04;52.56;101045.06;5042600;28;45781;-73
2023/06/12 12:32:56;;;;;;;;;25.00;22.00;;;;;26.04;52.70;101051.31;5041097;28;45635;-74
2023/06/12 12:35:23;;;;;;;;;23.00;20.67;;;;;26.06;51.99;101048.44;5049444;28;45967;-74
2023/06/12 12:37:51;;;;;;;;;19.00;15.67;;;;;26.04;52.15;101039.63;5035834;28;45498;-74
2023/06/12 12:40:16;;;;;;;;;23.67;22.00;;;;;26.09;52.60;101045.38;5049346;28;45601;-74
2023/06/12 12:42:45;;;;;;;;;24.33;24.00;;;;;26.09;52.59;101039.94;5038384;28;45716;-73
2023/06/12 12:45:13;;;;;;;;;21.33;21.33;;;;;26.09;51.75;101030.91;5041782;28;45489;-74
2023/06/12 12:47:44;;;;;;;;;28.67;23.00;;;;;26.09;51.97;101028.19;5041947;28;45420;-74
2023/06/12 12:50:10;;;;;;;;;21.67;21.00;;;;;26.12;52.13;101030.56;5046832;28;46000;-73
2023/06/12 12:52:36;;;;;;;;;25.33;21.00;;;;;26.11;51.81;101023.44;5048488;28;45395;-74
2023/06/12 12:55:04;;;;;;;;;23.00;21.33;;;;;26.15;52.28;101027.47;5046628;28;46159;-73
2023/06/12 12:57:33;;;;;;;;;24.67;23.00;;;;;26.14;51.74;101018.47;5052077;28;45570;-74
2023/06/12 12:59:59;;;;;;;;;22.67;21.33;;;;;26.16;52.37;101018.28;5042136;28;45442;-73
2023/06/12 13:02:26;;;;;;;;;24.00;22.33;;;;;26.16;51.38;101019.13;5047467;28;45507;-74
2023/06/12 13:04:51;;;;;;;;;25.33;21.00;;;;;26.16;52.05;101010.97;5051218;28;46054;-74
2023/06/12 13:07:17;;;;;;;;;25.67;25.33;;;;;26.17;51.55;101014.53;5042738;28;51284;-73
2023/06/12 13:09:43;;;;;;;;;23.00;23.00;;;;;26.20;52.28;101014.19;5038044;28;45529;-73
2023/06/12 13:12:10;;;;;;;;;23.67;23.00;;;;;26.13;52.22;100997.75;5048649;28;45341;-74
2023/06/12 13:14:36;;;;;;;;;25.00;22.67;;;;;26.21;51.40;101007.72;5043060;28;46847;-74
2023/06/12 13:17:01;;;;;;;;;23.00;23.00;;;;;26.22;51.66;101008.56;5051811;28;45597;-73
2023/06/12 13:19:28;;;;;;;;;26.00;26.00;;;;;26.22;51.98;101006.69;5050166;28;45400;-73
2023/06/12 13:21:53;;;;;;;;;23.33;23.33;;;;;26.23;52.18;101004.81;5046465;28;45406;-74
2023/06/12 13:24:18;;;;;;;;;22.33;20.67;;;;;26.24;51.43;101001.91;5050848;28;45485;-74
2023/06/12 13:26:44;;;;;;;;;25.00;23.33;;;;;26.25;51.59;101002.78;5052485;28;45353;-74
2023/06/12 13:29:09;;;;;;;;;21.67;20.33;;;;;26.25;51.39;100997.34;5050709;28;46055;-74
2023/06/12 13:31:34;;;;;;;;;25.67;24.00;;;;;26.22;51.23;100979.47;5045142;28;45487;-74
2023/06/12 13:34:00;;;;;;;;;21.67;20.33;;;;;26.24;51.95;100985.56;5052423;28;46052;-73
2023/06/12 13:36:25;;;;;;;;;22.00;18.67;;;;;26.22;51.93;100975.91;5051536;28;45470;-75
2023/06/12 13:38:50;;;;;;;;;21.67;21.67;;;;;26.23;52.11;100980.34;5051660;28;52789;-74
2023/06/12 13:41:16;;;;;;;;;22.00;20.00;;;;;26.24;52.28;100982.03;5049605;28;45415;-75
2023/06/12 13:43:42;;;;;;;;;19.67;19.67;;;;;26.27;51.84;100977.09;5051439;28;45454;-74
2023/06/12 13:46:07;;;;;;;;;21.33;20.33;;;;;26.29;51.64;100979.63;5051798;28;45465;-74
2023/06/12 13:48:32;;;;;;;;;20.33;18.67;;;;;26.30;51.59;100967.72;5047385;28;45522;-73
2023/06/12 13:50:59;;;;;;;;;21.33;20.67;;;;;26.30;51.68;100968.59;5047259;28;45351;-72
2023/06/12 13:53:25;;;;;;;;;23.33;20.67;;;;;26.30;52.05;100971.31;5053881;28;47502;-73
2023/06/12 13:55:51;;;;;;;;;21.33;19.67;;;;;26.23;51.59;100958.56;5041041;28;45324;-73
2023/06/12 13:58:16;;;;;;;;;20.00;19.33;;;;;26.31;51.41;100963.97;5042597;28;45774;-73
2023/06/12 14:00:41;;;;;;;;;17.33;17.33;;;;;26.30;51.61;100956.84;5052524;28;50725;-72
2023/06/12 14:03:07;;;;;;;;;23.67;21.00;;;;;26.30;52.11;100959.56;5054873;28;46096;-73
2023/06/12 14:05:32;;;;;;;;;18.33;17.33;;;;;26.30;51.62;100952.25;5053320;28;45541;-73
2023/06/12 14:07:57;;;;;;;;;18.33;17.33;;;;;26.33;51.54;100961.94;5053364;28;45386;-73
2023/06/12 14:10:23;;;;;;;;;20.00;19.00;;;;;26.34;52.11;100955.44;5052607;28;45387;-72
2023/06/12 14:12:49;;;;;;;;;20.33;16.33;;;;;26.32;52.06;100949.31;5054253;28;45619;-72
2023/06/12 14:15:15;;;;;;;;;18.67;18.67;;;;;26.37;51.66;100948.78;5055220;28;45464;-73
2023/06/12 14:17:40;;;;;;;;;20.67;18.33;;;;;26.36;51.89;100947.94;5052215;28;45382;-73
2023/06/12 14:20:06;;;;;;;;;18.33;17.67;;;;;26.36;52.06;100934.34;5053100;28;45407;-74
2023/06/12 14:22:32;;;;;;;;;18.33;16.67;;;;;26.38;51.36;100936.88;5038676;28;45927;-74
2023/06/12 14:24:57;;;;;;;;;19.00;18.00;;;;;26.38;51.65;100928.72;5041787;28;45526;-74
2023/06/12 14:27:23;;;;;;;;;17.67;15.67;;;;;26.36;51.98;100928.88;5050184;28;45560;-74
2023/06/12 14:29:48;;;;;;;;;15.33;15.33;;;;;26.38;51.97;100928.72;5054104;28;45367;-72
2023/06/12 14:32:14;;;;;;;;;18.33;17.67;;;;;26.36;52.00;100920.72;5050711;28;45794;-73
2023/06/12 14:34:39;;;;;;;;;15.33;15.33;;;;;26.37;51.46;100927.03;5048835;28;45498;-74
2023/06/12 14:37:05;;;;;;;;;18.33;16.33;;;;;26.38;51.90;100920.56;5045374;28;45696;-73
2023/06/12 14:39:30;;;;;;;;;16.67;15.33;;;;;26.38;51.44;100923.28;5046755;28;45839;-74
2023/06/12 14:41:56;;;;;;;;;16.33;14.00;;;;;26.39;51.93;100925.81;5050489;28;45484;-73
2023/06/12 14:44:21;;;;;;;;;20.33;19.00;;;;;26.39;51.39;100916.78;5053403;28;45487;-72
2023/06/12 14:46:46;;;;;;;;;20.67;19.33;;;;;26.40;51.46;100916.63;5052907;28;45454;-73
2023/06/12 14:49:12;;;;;;;;;17.33;17.33;;;;;26.40;52.09;100910.34;5054021;28;45451;-74
2023/06/12 14:51:37;;;;;;;;;18.67;16.33;;;;;26.39;51.89;100904.03;5054769;28;45468;-74
2023/06/12 14:54:02;;;;;;;;;16.00;14.00;;;;;26.40;52.09;100896.75;5049734;28;45402;-73
2023/06/12 14:56:28;;;;;;;;;16.00;16.00;;;;;26.43;51.34;100899.94;5042648;28;45440;-74
2023/06/12 14:58:53;;;;;;;;;15.00;15.00;;;;;26.43;51.90;100899.06;5054145;28;45558;-74
2023/06/12 15:01:18;;;;;;;;;13.33;13.33;;;;;26.40;51.37;100894.84;5054316;28;47189;-75
2023/06/12 15:03:44;;;;;;;;;16.00;15.33;;;;;26.43;51.98;100891.75;5051290;28;51341;-75
2023/06/12 15:06:09;;;;;;;;;16.33;15.33;;;;;26.43;51.50;100889.03;5048370;28;45496;-74
2023/06/12 15:08:34;;;;;;;;;15.00;15.00;;;;;26.41;51.72;100895.69;5047919;28;45544;-75
2023/06/12 15:11:00;;;;;;;;;17.00;17.00;;;;;26.42;51.44;100889.22;5040620;28;45520;-73
2023/06/12 15:13:25;;;;;;;;;14.00;13.33;;;;;26.42;52.23;100887.34;5042209;28;45725;-75
2023/06/12 15:15:51;;;;;;;;;15.00;15.00;;;;;26.44;51.46;100884.44;5051235;28;45541;-72
2023/06/12 15:18:16;;;;;;;;;14.33;14.33;;;;;26.44;52.07;100879.84;5054460;28;45657;-74
2023/06/12 15:20:41;;;;;;;;;12.33;12.33;;;;;26.43;51.82;100878.16;5053423;28;45439;-75
2023/06/12 15:23:07;;;;;;;;;13.67;13.67;;;;;26.43;51.72;100878.16;5045073;28;45481;-75
2023/06/12 15:25:32;;;;;;;;;14.67;13.33;;;;;26.43;52.00;100869.13;5052972;28;45390;-74
2023/06/12 15:27:57;;;;;;;;;20.00;17.00;;;;;26.44;51.48;100873.53;5053218;28;45352;-76
2023/06/12 15:30:23;;;;;;;;;15.00;15.00;;;;;26.45;52.08;100861.66;5043520;28;45771;-75
2023/06/12 15:32:48;;;;;;;;;18.33;17.00;;;;;26.43;51.78;100855.53;5054248;28;45495;-76
2023/06/12 15:35:14;;;;;;;;;14.33;14.33;;;;;26.44;51.55;100859.94;5040815;28;45392;-75
2023/06/12 15:37:39;;;;;;;;;16.33;13.67;;;;;26.45;51.42;100861.66;5044646;28;45451;-75
2023/06/12 15:40:09;;;;;;;;;11.00;11.00;;;;;26.46;51.69;100849.72;5051559;28;45441;-75
2023/06/12 15:42:37;;;;;;;;;15.67;15.00;;;;;26.43;51.33;100841.94;5041112;28;45469;-73
2023/06/12 15:45:02;;;;;;;;;15.67;15.67;;;;;26.46;51.92;100843.44;5054140;28;45442;-74
2023/06/12 15:47:27;;;;;;;;;15.33;13.67;;;;;26.46;51.44;100849.72;5049845;28;45719;-73
2023/06/12 15:49:53;;;;;;;;;13.33;12.33;;;;;26.48;51.53;100846.81;5052479;28;46212;-74
2023/06/12 15:52:18;;;;;;;;;13.67;13.67;;;;;26.45;51.68;100839.88;5045927;28;45778;-74
2023/06/12 15:54:43;;;;;;;;;14.00;13.67;;;;;26.48;51.71;100847.66;5048488;28;45651;-73
2023/06/12 15:57:10;;;;;;;;;16.00;15.33;;;;;26.50;51.72;100847.47;5045195;28;56639;-73
2023/06/12 15:59:36;;;;;;;;;15.33;12.33;;;;;26.54;51.29;100837.91;5038119;28;45409;-73
2023/06/12 16:02:01;;;;;;;;;15.00;15.00;;;;;26.55;51.00;100839.59;5045156;28;45519;-73
2023/06/12 16:04:27;;;;;;;;;15.00;15.00;;;;;26.57;51.02;100834.81;5038764;28;45608;-75
2023/06/12 16:06:52;;;;;;;;;16.00;15.33;;;;;26.61;51.44;100836.13;5053361;28;45368;-75
2023/06/12 16:09:17;;;;;;;;;16.33;12.33;;;;;26.64;51.43;100841.19;5053873;28;45685;-73
2023/06/12 16:11:43;;;;;;;;;17.33;16.67;;;;;26.66;51.46;100828.25;5053498;28;45550;-73
2023/06/12 16:14:10;;;;;;;;;14.33;13.67;;;;;26.65;51.45;100814.81;5049589;28;45669;-74
2023/06/12 16:16:36;;;;;;;;;17.33;15.33;;;;;26.68;51.38;100817.16;5035388;28;46213;-74
2023/06/12 16:19:02;;;;;;;;;17.00;17.00;;;;;26.67;51.01;100827.22;5038709;28;46240;-74
2023/06/12 16:21:27;;;;;;;;;13.67;13.00;;;;;26.65;51.50;100812.94;5038583;28;45361;-74
2023/06/12 16:23:52;;;;;;;;;15.00;15.00;;;;;26.63;51.08;100809.56;5037839;28;45555;-74
2023/06/12 16:26:18;;;;;;;;;15.00;15.00;;;;;26.62;50.93;100813.31;5042454;28;46249;-76
2023/06/12 16:28:43;;;;;;;;;15.33;14.00;;;;;26.58;51.08;100801.94;5051533;28;45423;-76
2023/06/12 16:31:09;;;;;;;;;16.00;16.00;;;;;26.57;51.30;100804.88;5046767;28;49183;-73
2023/06/12 16:33:36;;;;;;;;;17.00;14.67;;;;;26.60;51.80;100803.66;5053200;28;45668;-74
2023/06/12 16:36:01;;;;;;;;;14.67;14.67;;;;;26.58;51.79;100801.94;5051615;28;45433;-75
2023/06/12 16:38:26;;;;;;;;;10.67;10.67;;;;;26.60;51.27;100799.03;5049550;28;45618;-74
2023/06/12 16:40:53;;;;;;;;;14.67;13.00;;;;;26.62;51.14;100804.31;5039239;28;45534;-73